Terminal Aerodrome Forecast
Issued by NWS Blacksburg, VA

Current Version | Previous Version | Graphics & Text | Print | Product List | Glossary On
Versions: 1 2 3 4 5 6 7 8 9 10 11 12 13 14 15 16 17 18 19 20 21 22 23 24 25 26 27 28 29 30 31 32 33 34 35 36 37 38 39 40 41
380
FTUS41 KRNK 180239 AAA
TAFBLF
TAF AMD
KBLF 180239Z 1803/1824 31006KT 2SM -SN BR OVC012
      TEMPO 1803/1806 5SM -SN OVC020
     FM180600 29010KT P6SM BKN025
     FM180900 28011KT P6SM SCT035
     FM181100 28011KT P6SM FEW150=

USA.gov is the U.S. government's official web portal to all federal, state and local government web resources and services.